Select Airport:
Chesapeake Regional Airport
Last updated: 16 minutes ago
Flight conditions: VFR
Visibility: 10.0 statute miles
Sky Conditions: Clear
Wind From: 280°
Wind speed: 3 knots (3.45 mph)
Temperature: 18.0°C (64.4°F)
Dew Point: 9.2°C (48.56°F)
Altimiter setting: 30.06 in-hg
WX phone: 1-757-204-4290
WX freq: 123.675 MHz
Runway 23
   Crosswind component: 2.3 knots (2.64 mph)
   Headwind component: 1.93 knots (2.22 mph)
KCPK 222235Z AUTO 28003KT 10SM CLR 18/09 A3006 RMK AO2 T01800092
FOR REFERENCE USE ONLY, DATA MAY NOT BE CURRENT.
ALWAYS CHECK FOR UP TO DATE INFORMATION.